createdAt,value
2018-08-06T00:00:36.189Z,101244.41
2018-08-06T00:03:05.166Z,101238.28
2018-08-06T00:05:34.122Z,101244.27
2018-08-06T00:08:03.178Z,101246.68
2018-08-06T00:10:32.136Z,101242.66
2018-08-06T00:13:01.121Z,101234.34
2018-08-06T00:15:30.175Z,101237.88
2018-08-06T00:17:59.138Z,101236.38
2018-08-06T00:20:28.059Z,101233.77
2018-08-06T00:22:57.007Z,101238.28
2018-08-06T00:25:26.019Z,101230.53
2018-08-06T00:27:54.938Z,101226.86
2018-08-06T00:30:23.859Z,101225.98
2018-08-06T00:32:52.822Z,101227.59
2018-08-06T00:35:21.826Z,101218.48
2018-08-06T00:37:50.766Z,101221.95
2018-08-06T00:40:20.967Z,101213.80
2018-08-06T00:42:50.311Z,101213.75
2018-08-06T00:45:20.532Z,101209.87
2018-08-06T00:47:49.896Z,101207.00
2018-08-06T00:50:18.830Z,101208.89
2018-08-06T00:52:47.787Z,101209.72
2018-08-06T00:55:18.274Z,101206.31
2018-08-06T00:57:47.238Z,101198.85
2018-08-06T01:00:17.428Z,101203.30
2018-08-06T01:02:46.407Z,101206.31
2018-08-06T01:05:15.955Z,101208.36
2018-08-06T01:07:46.017Z,101203.48
2018-08-06T01:10:16.260Z,101201.14
2018-08-06T01:12:45.298Z,101200.61
2018-08-06T01:15:17.603Z,101196.56
2018-08-06T01:17:46.533Z,101196.24
2018-08-06T01:20:15.792Z,101195.01
2018-08-06T01:22:45.472Z,101189.22
2018-08-06T01:25:14.846Z,101189.13
2018-08-06T01:27:43.835Z,101192.52
2018-08-06T01:30:14.058Z,101194.52
2018-08-06T01:32:43.261Z,101188.49
2018-08-06T01:35:12.473Z,101182.66
2018-08-06T01:37:41.474Z,101183.92
2018-08-06T01:40:13.127Z,101186.53
2018-08-06T01:42:42.283Z,101184.74
2018-08-06T01:45:12.722Z,101180.32
2018-08-06T01:47:41.658Z,101174.08
2018-08-06T01:50:11.470Z,101175.70
2018-08-06T01:52:40.815Z,101175.11
2018-08-06T01:55:09.754Z,101169.15
2018-08-06T01:57:38.734Z,101170.52
2018-08-06T02:00:12.535Z,101172.16
2018-08-06T02:02:41.567Z,101169.15
2018-08-06T02:05:10.939Z,101165.44
2018-08-06T02:07:40.368Z,101161.09
2018-08-06T02:10:11.914Z,101159.84
2018-08-06T02:12:41.250Z,101164.08
2018-08-06T02:15:10.957Z,101158.09
2018-08-06T02:17:40.164Z,101152.88
2018-08-06T02:20:11.144Z,101147.80
2018-08-06T02:22:40.094Z,101147.58
2018-08-06T02:25:09.871Z,101145.36
2018-08-06T02:27:38.806Z,101137.48
2018-08-06T02:30:10.824Z,101132.87
2018-08-06T02:32:40.056Z,101133.13
2018-08-06T02:35:11.090Z,101134.09
2018-08-06T02:37:40.667Z,101129.20
2018-08-06T02:40:11.663Z,101129.26
2018-08-06T02:42:40.650Z,101126.36
2018-08-06T02:45:10.276Z,101127.17
2018-08-06T02:47:39.844Z,101124.80
2018-08-06T02:50:10.098Z,101127.30
2018-08-06T02:52:39.454Z,101129.98
2018-08-06T02:55:09.998Z,101127.80
2018-08-06T02:57:38.946Z,101126.80
2018-08-06T03:00:10.972Z,101119.50
2018-08-06T03:02:40.018Z,101122.47
2018-08-06T03:05:11.074Z,101122.20
2018-08-06T03:07:40.220Z,101114.36
2018-08-06T03:10:09.223Z,101114.68
2018-08-06T03:12:38.252Z,101108.95
2018-08-06T03:15:08.194Z,101113.30
2018-08-06T03:17:37.346Z,101117.89
2018-08-06T03:20:07.681Z,101114.86
2018-08-06T03:22:37.461Z,101110.00
2018-08-06T03:25:07.784Z,101108.58
2018-08-06T03:27:36.784Z,101102.14
2018-08-06T03:30:08.063Z,101109.86
2018-08-06T03:32:37.003Z,101105.11
2018-08-06T03:35:07.095Z,101094.84
2018-08-06T03:37:36.139Z,101102.02
2018-08-06T03:40:05.153Z,101098.30
2018-08-06T03:42:34.056Z,101099.05
2018-08-06T03:45:03.150Z,101103.63
2018-08-06T03:47:32.084Z,101052.73
2018-08-06T03:50:01.033Z,101102.19
2018-08-06T03:52:30.203Z,101096.39
2018-08-06T03:54:59.128Z,101105.72
2018-08-06T03:57:28.130Z,101106.55
2018-08-06T03:59:57.213Z,101104.59
2018-08-06T04:02:26.140Z,101101.75
2018-08-06T04:04:55.132Z,101099.39
2018-08-06T04:07:24.142Z,101102.98
2018-08-06T04:09:53.363Z,101102.98
2018-08-06T04:12:22.299Z,101107.53
2018-08-06T04:14:51.239Z,101097.41
2018-08-06T04:17:20.188Z,101106.67
2018-08-06T04:19:49.314Z,101098.14
2018-08-06T04:22:18.241Z,101105.50
2018-08-06T04:24:47.963Z,101109.08
2018-08-06T04:27:16.927Z,101102.00
2018-08-06T04:29:45.833Z,101099.16
2018-08-06T04:32:14.868Z,101107.34
2018-08-06T04:34:43.809Z,101102.49
2018-08-06T04:37:12.809Z,101105.02
2018-08-06T04:39:41.706Z,101103.62
2018-08-06T04:42:10.716Z,101104.23
2018-08-06T04:44:39.656Z,101099.80
2018-08-06T04:47:08.610Z,101038.03
2018-08-06T04:49:37.613Z,101089.16
2018-08-06T04:52:06.807Z,101093.38
2018-08-06T04:54:35.739Z,101093.82
2018-08-06T04:57:04.803Z,101090.06
2018-08-06T04:59:33.989Z,101100.09
2018-08-06T05:02:02.985Z,101096.70
2018-08-06T05:04:32.147Z,101100.48
2018-08-06T05:07:01.257Z,101106.44
2018-08-06T05:09:46.196Z,101089.30
2018-08-06T05:12:15.189Z,101101.34
2018-08-06T05:14:44.126Z,101097.36
2018-08-06T05:17:13.155Z,101092.98
2018-08-06T05:19:42.055Z,101096.52
2018-08-06T05:22:11.033Z,101095.70
2018-08-06T05:24:40.030Z,101094.36
2018-08-06T05:27:08.925Z,101098.63
2018-08-06T05:29:37.881Z,101096.29
2018-08-06T05:32:06.852Z,101083.24
2018-08-06T05:34:35.822Z,101087.34
2018-08-06T05:37:04.821Z,101085.73
2018-08-06T05:39:34.012Z,101093.19
2018-08-06T05:42:03.006Z,101097.30
2018-08-06T05:44:32.055Z,101099.05
2018-08-06T05:47:01.057Z,101091.84
2018-08-06T05:49:30.071Z,101092.16
2018-08-06T05:51:59.023Z,101086.72
2018-08-06T05:54:28.096Z,101093.55
2018-08-06T05:56:57.046Z,101092.98
2018-08-06T05:59:26.003Z,101095.57
2018-08-06T06:01:54.935Z,101094.30
2018-08-06T06:04:23.892Z,101096.66
2018-08-06T06:06:52.847Z,101095.25
2018-08-06T06:09:21.834Z,101096.34
2018-08-06T06:11:50.778Z,101095.25
2018-08-06T06:14:19.708Z,101098.97
2018-08-06T06:16:48.610Z,101100.63
2018-08-06T06:19:17.591Z,101095.01
2018-08-06T06:21:46.458Z,101087.13
2018-08-06T06:24:15.412Z,101088.66
2018-08-06T06:26:44.338Z,101083.14
2018-08-06T06:29:13.310Z,101076.86
2018-08-06T06:31:42.231Z,101073.70
2018-08-06T06:34:11.158Z,101072.41
2018-08-06T06:36:40.148Z,101073.93
2018-08-06T06:39:10.581Z,101071.06
2018-08-06T06:41:39.958Z,101075.66
2018-08-06T06:44:09.445Z,101075.36
2018-08-06T06:46:39.347Z,101072.33
2018-08-06T06:49:08.745Z,101071.94
2018-08-06T06:51:37.759Z,101067.52
2018-08-06T06:54:06.987Z,101057.48
2018-08-06T06:56:36.083Z,101055.04
2018-08-06T06:59:05.158Z,101051.84
2018-08-06T07:01:34.141Z,101052.54
2018-08-06T07:04:03.103Z,101044.29
2018-08-06T07:06:32.112Z,101051.38
2018-08-06T07:09:01.031Z,101047.19
2018-08-06T07:11:29.993Z,101046.56
2018-08-06T07:13:59.015Z,101044.76
2018-08-06T07:16:27.958Z,101042.34
2018-08-06T07:18:56.938Z,101039.55
2018-08-06T07:21:25.921Z,101041.03
2018-08-06T07:23:54.925Z,101039.24
2018-08-06T07:26:23.869Z,101033.27
2018-08-06T07:28:52.824Z,101033.98
2018-08-06T07:31:21.822Z,101029.92
2018-08-06T07:33:50.834Z,101023.16
2018-08-06T07:36:19.783Z,101017.02
2018-08-06T07:38:48.764Z,101016.83
2018-08-06T07:41:17.680Z,101006.84
2018-08-06T07:43:46.711Z,101001.02
2018-08-06T07:46:15.698Z,100996.10
2018-08-06T07:48:44.638Z,100994.61
2018-08-06T07:51:13.614Z,100993.63
2018-08-06T07:53:42.868Z,100995.31
2018-08-06T07:56:12.618Z,100994.81
2018-08-06T07:58:42.263Z,100982.48
2018-08-06T08:01:11.672Z,100982.51
2018-08-06T08:03:40.878Z,100981.74
2018-08-06T08:06:10.110Z,100974.81
2018-08-06T08:08:39.070Z,100979.84
2018-08-06T08:11:08.322Z,100974.81
2018-08-06T08:13:37.379Z,100969.43
2018-08-06T08:16:07.191Z,100975.05
2018-08-06T08:18:36.610Z,100978.30
2018-08-06T08:21:05.706Z,100967.94
2018-08-06T08:23:34.823Z,100969.11
2018-08-06T08:26:03.903Z,100965.05
2018-08-06T08:28:33.014Z,100952.50
2018-08-06T08:31:02.351Z,100947.55
2018-08-06T08:33:31.581Z,100949.41
2018-08-06T08:36:00.535Z,100941.94
2018-08-06T08:38:29.346Z,100943.66
2018-08-06T08:40:58.490Z,100942.14
2018-08-06T08:43:27.812Z,100933.19
2018-08-06T08:45:56.839Z,100932.94
2018-08-06T08:48:25.965Z,100925.42
2018-08-06T08:50:56.307Z,100926.22
2018-08-06T08:53:25.600Z,100922.77
2018-08-06T08:55:54.662Z,100923.36
2018-08-06T08:58:23.616Z,100916.89
2018-08-06T09:00:52.883Z,100917.29
2018-08-06T09:03:21.823Z,100914.75
2018-08-06T09:05:51.055Z,100910.28
2018-08-06T09:08:20.159Z,100905.88
2018-08-06T09:10:49.556Z,100872.95
2018-08-06T09:13:18.760Z,100910.02
2018-08-06T09:15:48.315Z,100898.50
2018-08-06T09:18:17.402Z,100904.08
2018-08-06T09:20:46.667Z,100897.97
2018-08-06T09:23:15.949Z,100895.36
2018-08-06T09:25:45.030Z,100893.14
2018-08-06T09:28:13.968Z,100895.64
2018-08-06T09:30:43.246Z,100894.04
2018-08-06T09:33:12.349Z,100885.18
2018-08-06T09:35:41.434Z,100881.81
2018-08-06T09:38:10.890Z,100877.08
2018-08-06T09:40:39.918Z,100871.16
2018-08-06T09:43:08.933Z,100867.47
2018-08-06T09:45:38.019Z,100867.13
2018-08-06T09:48:07.114Z,100858.69
2018-08-06T09:50:36.418Z,100845.73
2018-08-06T09:53:05.950Z,100847.88
2018-08-06T09:55:34.909Z,100841.73
2018-08-06T09:58:04.095Z,100844.88
2018-08-06T10:00:38.470Z,100841.84
2018-08-06T10:03:07.438Z,100838.05
2018-08-06T10:05:36.569Z,100843.61
2018-08-06T10:08:05.839Z,100830.37
2018-08-06T10:10:34.903Z,100830.42
2018-08-06T10:13:03.998Z,100827.44
2018-08-06T10:15:33.001Z,100824.60
2018-08-06T10:18:02.566Z,100817.03
2018-08-06T10:20:31.724Z,100805.77
2018-08-06T10:23:01.003Z,100809.45
2018-08-06T10:25:29.925Z,100806.64
2018-08-06T10:27:58.919Z,100821.30
2018-08-06T10:30:28.107Z,100806.05
2018-08-06T10:32:57.199Z,100803.00
2018-08-06T10:35:26.276Z,100803.91
2018-08-06T10:37:55.894Z,100797.64
2018-08-06T10:40:25.456Z,100795.59
2018-08-06T10:42:54.703Z,100784.96
2018-08-06T10:45:25.283Z,100788.97
2018-08-06T10:47:55.369Z,100778.00
2018-08-06T10:50:24.526Z,100778.05
2018-08-06T10:52:53.802Z,100784.83
2018-08-06T10:55:22.983Z,100782.36
2018-08-06T10:57:52.219Z,100782.00
2018-08-06T11:00:23.003Z,100775.73
2018-08-06T11:02:52.655Z,100774.03
2018-08-06T11:05:22.420Z,100767.36
2018-08-06T11:07:51.434Z,100759.72
2018-08-06T11:10:23.058Z,100759.55
2018-08-06T11:12:52.338Z,100755.46
2018-08-06T11:15:23.040Z,100749.48
2018-08-06T11:17:52.178Z,100750.91
2018-08-06T11:20:21.937Z,100749.63
2018-08-06T11:22:51.175Z,100748.41
2018-08-06T11:25:22.054Z,100737.94
2018-08-06T11:27:51.226Z,100739.31
2018-08-06T11:30:23.374Z,100735.19
2018-08-06T11:32:53.680Z,100734.47
2018-08-06T11:35:22.807Z,100737.72
2018-08-06T11:37:52.103Z,100727.76
2018-08-06T11:40:21.188Z,100723.95
2018-08-06T11:42:50.131Z,100719.80
2018-08-06T11:45:21.088Z,100715.63
2018-08-06T11:47:50.323Z,100713.11
2018-08-06T11:50:19.818Z,100707.27
2018-08-06T11:52:49.138Z,100708.42
2018-08-06T11:55:18.586Z,100702.95
2018-08-06T11:57:48.146Z,100701.98
2018-08-06T12:00:20.573Z,100692.73
2018-08-06T12:02:49.827Z,100695.14
2018-08-06T12:05:19.283Z,100690.23
2018-08-06T12:07:48.418Z,100692.49
2018-08-06T12:10:18.959Z,100688.98
2018-08-06T12:12:49.054Z,100688.40
2018-08-06T12:15:18.825Z,100686.41
2018-08-06T12:17:48.618Z,100681.23
2018-08-06T12:20:19.334Z,100678.23
2018-08-06T12:22:50.125Z,100677.55
2018-08-06T12:25:19.915Z,100675.19
2018-08-06T12:27:49.866Z,100677.81
2018-08-06T12:30:20.578Z,100667.59
2018-08-06T12:32:50.639Z,100667.28
2018-08-06T12:35:20.131Z,100663.80
2018-08-06T12:37:49.833Z,100662.79
2018-08-06T12:40:21.489Z,100661.95
2018-08-06T12:42:50.694Z,100661.24
2018-08-06T12:45:19.980Z,100654.91
2018-08-06T12:47:49.287Z,100644.09
2018-08-06T12:50:18.682Z,100648.48
2018-08-06T12:52:48.041Z,100643.97
2018-08-06T12:55:18.469Z,100643.39
2018-08-06T12:57:48.249Z,100635.89
2018-08-06T13:00:21.434Z,100634.55
2018-08-06T13:02:51.690Z,100642.31
2018-08-06T13:05:21.787Z,100639.97
2018-08-06T13:07:51.507Z,100637.50
2018-08-06T13:10:21.185Z,100623.50
2018-08-06T13:12:50.218Z,100624.23
2018-08-06T13:15:19.782Z,100625.95
2018-08-06T13:17:50.693Z,100616.53
2018-08-06T13:20:20.969Z,100611.80
2018-08-06T13:22:50.202Z,100612.63
2018-08-06T13:25:19.489Z,100608.73
2018-08-06T13:27:49.328Z,100616.08
2018-08-06T13:30:18.229Z,100606.98
2018-08-06T13:32:47.550Z,100608.22
2018-08-06T13:35:17.083Z,100599.25
2018-08-06T13:37:46.345Z,100599.86
2018-08-06T13:40:15.638Z,100606.63
2018-08-06T13:42:44.729Z,100596.27
2018-08-06T13:45:14.651Z,100585.66
2018-08-06T13:47:43.981Z,100583.89
2018-08-06T13:50:14.435Z,100581.25
2018-08-06T13:52:44.136Z,100578.73
2018-08-06T13:55:14.152Z,100570.29
2018-08-06T13:57:43.451Z,100574.35
2018-08-06T14:00:19.973Z,100573.93
2018-08-06T14:02:49.196Z,100571.55
2018-08-06T14:05:19.587Z,100561.58
2018-08-06T14:07:49.426Z,100569.66
2018-08-06T14:10:19.139Z,100564.73
2018-08-06T14:12:49.063Z,100559.53
2018-08-06T14:15:19.340Z,100559.49
2018-08-06T14:17:48.870Z,100550.13
2018-08-06T14:20:19.240Z,100539.73
2018-08-06T14:22:49.216Z,100541.61
2018-08-06T14:25:19.386Z,100540.30
2018-08-06T14:27:49.606Z,100535.80
2018-08-06T14:30:18.831Z,100523.19
2018-08-06T14:32:47.938Z,100523.94
2018-08-06T14:35:17.444Z,100520.95
2018-08-06T14:37:47.655Z,100516.31
2018-08-06T14:40:18.674Z,100513.12
2018-08-06T14:42:48.099Z,100518.68
2018-08-06T14:45:18.546Z,100505.80
2018-08-06T14:47:47.631Z,100501.66
2018-08-06T14:50:17.097Z,100499.03
2018-08-06T14:52:46.255Z,100494.30
2018-08-06T14:55:15.988Z,100501.75
2018-08-06T14:57:45.230Z,100498.20
2018-08-06T15:00:17.375Z,100491.54
2018-08-06T15:02:47.157Z,100485.16
2018-08-06T15:05:16.427Z,100484.72
2018-08-06T15:07:45.397Z,100478.83
2018-08-06T15:10:15.474Z,100478.79
2018-08-06T15:12:44.961Z,100478.61
2018-08-06T15:15:15.831Z,100472.84
2018-08-06T15:17:45.832Z,100470.64
2018-08-06T15:20:16.803Z,100463.54
2018-08-06T15:22:46.409Z,100459.55
2018-08-06T15:25:20.567Z,100458.06
2018-08-06T15:27:50.166Z,100458.84
2018-08-06T15:30:19.878Z,100445.70
2018-08-06T15:32:48.976Z,100449.81
2018-08-06T15:35:18.814Z,100444.70
2018-08-06T15:37:47.983Z,100439.37
2018-08-06T15:40:19.294Z,100441.73
2018-08-06T15:42:49.391Z,100433.36
2018-08-06T15:45:18.778Z,100427.18
2018-08-06T15:47:48.316Z,100425.39
2018-08-06T15:50:19.071Z,100425.52
2018-08-06T15:52:48.480Z,100418.95
2018-08-06T15:55:17.455Z,100415.87
2018-08-06T15:57:47.149Z,100413.66
2018-08-06T16:00:17.312Z,100414.17
2018-08-06T16:02:46.578Z,100402.83
2018-08-06T16:05:15.710Z,100409.78
2018-08-06T16:07:45.270Z,100403.76
2018-08-06T16:10:14.882Z,100395.80
2018-08-06T16:12:44.182Z,100391.42
2018-08-06T16:15:14.598Z,100396.63
2018-08-06T16:17:44.551Z,100396.05
2018-08-06T16:20:15.102Z,100389.14
2018-08-06T16:22:45.216Z,100381.94
2018-08-06T16:25:14.712Z,100384.38
2018-08-06T16:27:44.165Z,100382.98
2018-08-06T16:30:18.279Z,100385.34
2018-08-06T16:32:48.979Z,100387.47
2018-08-06T16:35:19.652Z,100384.73
2018-08-06T16:37:49.565Z,100382.34
2018-08-06T16:40:18.997Z,100376.55
2018-08-06T16:42:48.528Z,100375.98
2018-08-06T16:45:17.526Z,100373.87
2018-08-06T16:47:46.553Z,100367.69
2018-08-06T16:50:16.543Z,100371.95
2018-08-06T16:52:45.891Z,100375.23
2018-08-06T16:55:15.459Z,100368.02
2018-08-06T16:57:44.430Z,100370.09
2018-08-06T17:00:17.643Z,100367.38
2018-08-06T17:02:46.845Z,100375.04
2018-08-06T17:05:15.806Z,100358.50
2018-08-06T17:07:45.958Z,100362.30
2018-08-06T17:10:17.090Z,100359.64
2018-08-06T17:12:48.465Z,100352.45
2018-08-06T17:15:18.664Z,100350.22
2018-08-06T17:17:48.330Z,100357.14
2018-08-06T17:20:19.103Z,100357.79
2018-08-06T17:22:49.187Z,100356.37
2018-08-06T17:25:18.208Z,100355.53
2018-08-06T17:27:47.215Z,100353.36
2018-08-06T17:30:16.859Z,100355.95
2018-08-06T17:32:46.528Z,100349.73
2018-08-06T17:35:16.058Z,100350.56
2018-08-06T17:37:45.850Z,100345.25
2018-08-06T17:40:16.784Z,100342.91
2018-08-06T17:42:46.303Z,100339.41
2018-08-06T17:45:19.859Z,100342.95
2018-08-06T17:47:49.319Z,100346.67
2018-08-06T17:50:20.134Z,100345.75
2018-08-06T17:52:50.150Z,100351.41
2018-08-06T17:55:20.339Z,100351.33
2018-08-06T17:57:50.177Z,100350.84
2018-08-06T18:00:20.083Z,100346.69
2018-08-06T18:02:49.390Z,100345.30
2018-08-06T18:05:19.012Z,100346.43
2018-08-06T18:07:48.626Z,100345.09
2018-08-06T18:10:18.471Z,100352.59
2018-08-06T18:12:48.115Z,100353.28
2018-08-06T18:15:17.309Z,100348.56
2018-08-06T18:17:46.598Z,100350.75
2018-08-06T18:20:18.486Z,100349.98
2018-08-06T18:22:47.888Z,100348.20
2018-08-06T18:25:18.816Z,100350.73
2018-08-06T18:27:48.919Z,100348.50
2018-08-06T18:30:19.702Z,100349.37
2018-08-06T18:32:48.971Z,100353.73
2018-08-06T18:35:19.202Z,100356.32
2018-08-06T18:37:48.565Z,100359.17
2018-08-06T18:40:19.340Z,100355.44
2018-08-06T18:42:48.870Z,100359.86
2018-08-06T18:45:20.253Z,100352.46
2018-08-06T18:47:50.284Z,100356.61
2018-08-06T18:50:19.990Z,100355.55
2018-08-06T18:52:49.924Z,100348.73
2018-08-06T18:55:19.870Z,100351.02
2018-08-06T18:57:49.246Z,100352.70
2018-08-06T19:00:22.644Z,100358.75
2018-08-06T19:02:52.125Z,100359.31
2018-08-06T19:05:21.238Z,100357.35
2018-08-06T19:07:50.619Z,100360.10
2018-08-06T19:10:19.903Z,100362.83
2018-08-06T19:12:54.536Z,100364.98
2018-08-06T19:15:23.631Z,100361.97
2018-08-06T19:17:57.967Z,100361.95
2018-08-06T19:20:27.040Z,100375.88
2018-08-06T19:22:56.255Z,100372.83
2018-08-06T19:25:27.225Z,100375.57
2018-08-06T19:27:56.801Z,100377.19
2018-08-06T19:30:31.126Z,100382.06
2018-08-06T19:33:01.335Z,100384.23
2018-08-06T19:35:30.575Z,100385.60
2018-08-06T19:37:59.819Z,100389.92
2018-08-06T19:40:28.883Z,100388.73
2018-08-06T19:43:03.267Z,100397.38
2018-08-06T19:45:32.501Z,100396.67
2018-08-06T19:48:01.498Z,100396.88
2018-08-06T19:50:35.774Z,100389.95
2018-08-06T19:53:04.776Z,100395.27
2018-08-06T19:55:39.098Z,100397.08
2018-08-06T19:58:08.051Z,100392.16
2018-08-06T20:00:37.094Z,100401.90
2018-08-06T20:03:06.238Z,100399.25
2018-08-06T20:05:35.230Z,100395.45
2018-08-06T20:08:04.235Z,100398.77
2018-08-06T20:10:33.233Z,100408.20
2018-08-06T20:13:02.262Z,100408.94
2018-08-06T20:15:31.240Z,100405.03
2018-08-06T20:18:00.272Z,100402.59
2018-08-06T20:20:29.158Z,100400.77
2018-08-06T20:22:58.108Z,100404.67
2018-08-06T20:25:27.075Z,100409.77
2018-08-06T20:27:56.122Z,100405.23
2018-08-06T20:30:25.603Z,100406.55
2018-08-06T20:32:54.549Z,100411.03
2018-08-06T20:35:23.555Z,100407.23
2018-08-06T20:37:52.555Z,100414.56
2018-08-06T20:40:21.532Z,100409.30
2018-08-06T20:42:50.565Z,100407.30
2018-08-06T20:45:20.694Z,100410.61
2018-08-06T20:47:49.700Z,100406.84
2018-08-06T20:50:20.142Z,100416.43
2018-08-06T20:52:50.604Z,100412.30
2018-08-06T20:55:19.687Z,100419.94
2018-08-06T20:57:49.542Z,100415.05
2018-08-06T21:00:20.882Z,100416.09
2018-08-06T21:02:50.682Z,100416.94
2018-08-06T21:05:19.880Z,100418.42
2018-08-06T21:07:49.094Z,100414.75
2018-08-06T21:10:19.608Z,100417.09
2018-08-06T21:12:49.338Z,100410.91
2018-08-06T21:15:18.417Z,100417.28
2018-08-06T21:17:47.412Z,100413.05
2018-08-06T21:20:18.198Z,100414.11
2018-08-06T21:22:48.837Z,100409.91
2018-08-06T21:25:17.903Z,100413.09
2018-08-06T21:27:47.955Z,100411.27
2018-08-06T21:30:18.718Z,100411.37
2018-08-06T21:32:51.086Z,100415.84
2018-08-06T21:35:20.877Z,100415.45
2018-08-06T21:37:51.105Z,100414.30
2018-08-06T21:40:20.728Z,100414.64
2018-08-06T21:42:50.203Z,100413.58
2018-08-06T21:45:19.493Z,100420.02
2018-08-06T21:47:48.887Z,100420.02
2018-08-06T21:50:17.903Z,100417.42
2018-08-06T21:52:46.951Z,100414.21
2018-08-06T21:55:15.950Z,100416.75
2018-08-06T21:57:44.916Z,100420.54
2018-08-06T22:00:38.262Z,100413.34
2018-08-06T22:03:15.366Z,100413.09
2018-08-06T22:05:44.743Z,100410.57
2018-08-06T22:08:13.770Z,100415.45
2018-08-06T22:10:42.767Z,100409.36
2018-08-06T22:13:11.908Z,100408.96
2018-08-06T22:15:40.951Z,100409.11
2018-08-06T22:18:11.139Z,100409.02
2018-08-06T22:20:40.148Z,100405.03
2018-08-06T22:23:09.311Z,100410.23
2018-08-06T22:25:38.400Z,100405.73
2018-08-06T22:28:09.115Z,100402.33
2018-08-06T22:30:38.109Z,100406.95
2018-08-06T22:33:07.151Z,100410.03
2018-08-06T22:35:36.287Z,100423.02
2018-08-06T22:38:05.299Z,100417.59
2018-08-06T22:40:34.296Z,100411.50
2018-08-06T22:43:03.260Z,100413.31
2018-08-06T22:45:32.212Z,100409.28
2018-08-06T22:48:01.182Z,100409.84
2018-08-06T22:50:30.131Z,100401.34
2018-08-06T22:52:59.092Z,100407.75
2018-08-06T22:55:28.072Z,100408.27
2018-08-06T22:57:57.290Z,100410.09
2018-08-06T23:00:26.227Z,100402.70
2018-08-06T23:02:55.158Z,100397.94
2018-08-06T23:05:24.246Z,100401.21
2018-08-06T23:07:53.242Z,100397.73
2018-08-06T23:10:22.323Z,100400.05
2018-08-06T23:12:51.242Z,100397.80
2018-08-06T23:15:20.322Z,100396.48
2018-08-06T23:17:49.301Z,100392.72
2018-08-06T23:20:18.255Z,100393.78
2018-08-06T23:22:47.167Z,100392.04
2018-08-06T23:25:16.186Z,100384.09
2018-08-06T23:27:45.743Z,100383.08
2018-08-06T23:30:15.595Z,100386.07
2018-08-06T23:32:45.591Z,100382.33
2018-08-06T23:35:14.801Z,100387.75
2018-08-06T23:37:44.862Z,100384.84
2018-08-06T23:40:14.488Z,100385.55
2018-08-06T23:42:43.858Z,100381.05
2018-08-06T23:45:14.551Z,100386.02
2018-08-06T23:47:43.662Z,100383.30
2018-08-06T23:50:13.999Z,100385.47
2018-08-06T23:52:44.334Z,100387.01
2018-08-06T23:55:14.563Z,100391.50
2018-08-06T23:57:43.544Z,100391.56
